sensor_id;sensor_type;location;lat;lon;timestamp;pressure;altitude;pressure_sealevel;temperature;humidity
13209;BME280;6669;42.678;23.332;2023-04-26T00:02:22;93583.91;;;8.94;100.00
13209;BME280;6669;42.678;23.332;2023-04-26T00:04:50;93593.31;;;8.95;100.00
13209;BME280;6669;42.678;23.332;2023-04-26T00:07:24;93585.13;;;8.98;100.00
13209;BME280;6669;42.678;23.332;2023-04-26T00:09:52;93578.34;;;8.97;100.00
13209;BME280;6669;42.678;23.332;2023-04-26T00:12:20;93581.91;;;8.96;100.00
13209;BME280;6669;42.678;23.332;2023-04-26T00:14:48;93576.47;;;8.84;100.00
13209;BME280;6669;42.678;23.332;2023-04-26T00:17:16;93573.44;;;8.80;100.00
13209;BME280;6669;42.678;23.332;2023-04-26T00:19:44;93558.06;;;8.79;100.00
13209;BME280;6669;42.678;23.332;2023-04-26T00:22:12;93568.63;;;8.77;100.00
13209;BME280;6669;42.678;23.332;2023-04-26T00:24:42;93575.72;;;8.69;100.00
13209;BME280;6669;42.678;23.332;2023-04-26T00:27:10;93570.94;;;8.65;100.00
13209;BME280;6669;42.678;23.332;2023-04-26T00:29:38;93568.50;;;8.64;100.00
13209;BME280;6669;42.678;23.332;2023-04-26T00:32:06;93570.25;;;8.57;100.00
13209;BME280;6669;42.678;23.332;2023-04-26T00:34:35;93556.44;;;8.49;100.00
13209;BME280;6669;42.678;23.332;2023-04-26T00:37:04;93553.84;;;8.49;100.00
13209;BME280;6669;42.678;23.332;2023-04-26T00:39:32;93552.34;;;8.40;100.00
13209;BME280;6669;42.678;23.332;2023-04-26T00:42:02;93560.72;;;8.42;100.00
13209;BME280;6669;42.678;23.332;2023-04-26T00:44:30;93555.19;;;8.45;100.00
13209;BME280;6669;42.678;23.332;2023-04-26T00:46:58;93555.47;;;8.35;100.00
13209;BME280;6669;42.678;23.332;2023-04-26T00:49:26;93558.84;;;8.36;100.00
13209;BME280;6669;42.678;23.332;2023-04-26T00:51:54;93550.78;;;8.24;100.00
13209;BME280;6669;42.678;23.332;2023-04-26T00:54:23;93562.56;;;8.27;100.00
13209;BME280;6669;42.678;23.332;2023-04-26T00:56:51;93565.53;;;8.24;100.00
13209;BME280;6669;42.678;23.332;2023-04-26T00:59:20;93562.94;;;8.24;100.00
13209;BME280;6669;42.678;23.332;2023-04-26T01:01:48;93565.34;;;8.25;100.00
13209;BME280;6669;42.678;23.332;2023-04-26T01:04:16;93560.34;;;8.24;100.00
13209;BME280;6669;42.678;23.332;2023-04-26T01:06:45;93557.84;;;8.15;100.00
13209;BME280;6669;42.678;23.332;2023-04-26T01:09:13;93568.34;;;8.07;100.00
13209;BME280;6669;42.678;23.332;2023-04-26T01:11:42;93572.34;;;8.10;100.00
13209;BME280;6669;42.678;23.332;2023-04-26T01:14:10;93572.59;;;8.15;100.00
13209;BME280;6669;42.678;23.332;2023-04-26T01:16:40;93568.41;;;8.14;100.00
13209;BME280;6669;42.678;23.332;2023-04-26T01:19:08;93575.38;;;8.13;100.00
13209;BME280;6669;42.678;23.332;2023-04-26T01:21:38;93567.91;;;8.25;100.00
13209;BME280;6669;42.678;23.332;2023-04-26T01:24:10;93551.31;;;8.19;100.00
13209;BME280;6669;42.678;23.332;2023-04-26T01:26:38;93547.69;;;8.14;100.00
13209;BME280;6669;42.678;23.332;2023-04-26T01:29:15;93542.44;;;8.07;100.00
13209;BME280;6669;42.678;23.332;2023-04-26T01:31:43;93546.03;;;8.06;100.00
13209;BME280;6669;42.678;23.332;2023-04-26T01:34:12;93549.00;;;8.03;100.00
13209;BME280;6669;42.678;23.332;2023-04-26T01:36:40;93551.91;;;8.00;100.00
13209;BME280;6669;42.678;23.332;2023-04-26T01:39:09;93547.38;;;8.02;100.00
13209;BME280;6669;42.678;23.332;2023-04-26T01:41:38;93550.03;;;8.09;100.00
13209;BME280;6669;42.678;23.332;2023-04-26T01:44:06;93545.63;;;8.09;100.00
13209;BME280;6669;42.678;23.332;2023-04-26T01:46:34;93557.34;;;8.05;100.00
13209;BME280;6669;42.678;23.332;2023-04-26T01:49:02;93563.81;;;7.94;100.00
13209;BME280;6669;42.678;23.332;2023-04-26T01:51:30;93566.94;;;7.90;100.00
13209;BME280;6669;42.678;23.332;2023-04-26T01:53:58;93562.66;;;7.97;100.00
13209;BME280;6669;42.678;23.332;2023-04-26T01:56:27;93560.75;;;8.06;100.00
13209;BME280;6669;42.678;23.332;2023-04-26T01:58:55;93549.25;;;8.08;100.00
13209;BME280;6669;42.678;23.332;2023-04-26T02:01:24;93547.94;;;8.19;100.00
13209;BME280;6669;42.678;23.332;2023-04-26T02:03:53;93545.00;;;8.22;100.00
13209;BME280;6669;42.678;23.332;2023-04-26T02:06:20;93542.97;;;8.17;100.00
13209;BME280;6669;42.678;23.332;2023-04-26T02:08:48;93526.53;;;8.10;100.00
13209;BME280;6669;42.678;23.332;2023-04-26T02:11:17;93539.94;;;8.14;100.00
13209;BME280;6669;42.678;23.332;2023-04-26T02:13:46;93545.78;;;8.01;100.00
13209;BME280;6669;42.678;23.332;2023-04-26T02:16:14;93553.53;;;8.01;100.00
13209;BME280;6669;42.678;23.332;2023-04-26T02:18:42;93527.88;;;7.84;100.00
13209;BME280;6669;42.678;23.332;2023-04-26T02:21:11;93531.88;;;7.87;100.00
13209;BME280;6669;42.678;23.332;2023-04-26T02:23:39;93529.75;;;7.76;100.00
13209;BME280;6669;42.678;23.332;2023-04-26T02:26:07;93531.38;;;7.77;100.00
13209;BME280;6669;42.678;23.332;2023-04-26T02:28:35;93537.78;;;7.81;100.00
13209;BME280;6669;42.678;23.332;2023-04-26T02:31:04;93538.16;;;7.78;100.00
13209;BME280;6669;42.678;23.332;2023-04-26T02:33:33;93521.28;;;7.67;100.00
13209;BME280;6669;42.678;23.332;2023-04-26T02:36:02;93527.34;;;7.74;100.00
13209;BME280;6669;42.678;23.332;2023-04-26T02:38:32;93545.47;;;7.74;100.00
13209;BME280;6669;42.678;23.332;2023-04-26T02:41:01;93542.69;;;7.76;100.00
13209;BME280;6669;42.678;23.332;2023-04-26T02:43:29;93535.13;;;7.74;100.00
13209;BME280;6669;42.678;23.332;2023-04-26T02:45:57;93537.97;;;7.79;100.00
13209;BME280;6669;42.678;23.332;2023-04-26T02:48:28;93537.50;;;7.91;100.00
13209;BME280;6669;42.678;23.332;2023-04-26T02:50:56;93524.13;;;7.87;100.00
13209;BME280;6669;42.678;23.332;2023-04-26T02:53:24;93534.53;;;7.94;100.00
13209;BME280;6669;42.678;23.332;2023-04-26T02:55:52;93528.00;;;7.98;100.00
13209;BME280;6669;42.678;23.332;2023-04-26T02:58:19;93521.41;;;7.95;100.00
13209;BME280;6669;42.678;23.332;2023-04-26T03:00:48;93520.25;;;7.98;100.00
13209;BME280;6669;42.678;23.332;2023-04-26T03:03:16;93522.28;;;8.02;100.00
13209;BME280;6669;42.678;23.332;2023-04-26T03:05:45;93517.31;;;8.01;100.00
13209;BME280;6669;42.678;23.332;2023-04-26T03:08:13;93523.78;;;8.12;100.00
13209;BME280;6669;42.678;23.332;2023-04-26T03:10:43;93523.41;;;8.15;100.00
13209;BME280;6669;42.678;23.332;2023-04-26T03:13:11;93534.03;;;8.20;100.00
13209;BME280;6669;42.678;23.332;2023-04-26T03:15:43;93529.38;;;8.15;100.00
13209;BME280;6669;42.678;23.332;2023-04-26T03:18:11;93520.38;;;8.11;100.00
13209;BME280;6669;42.678;23.332;2023-04-26T03:20:40;93523.22;;;8.16;100.00
13209;BME280;6669;42.678;23.332;2023-04-26T03:23:10;93518.97;;;8.09;100.00
13209;BME280;6669;42.678;23.332;2023-04-26T03:25:38;93517.00;;;8.11;100.00
13209;BME280;6669;42.678;23.332;2023-04-26T03:28:06;93515.72;;;8.22;100.00
13209;BME280;6669;42.678;23.332;2023-04-26T03:30:34;93524.66;;;8.19;100.00
13209;BME280;6669;42.678;23.332;2023-04-26T03:33:02;93518.84;;;8.17;100.00
13209;BME280;6669;42.678;23.332;2023-04-26T03:35:30;93518.69;;;8.18;100.00
13209;BME280;6669;42.678;23.332;2023-04-26T03:37:58;93523.47;;;8.22;100.00
13209;BME280;6669;42.678;23.332;2023-04-26T03:40:27;93522.09;;;8.26;100.00
13209;BME280;6669;42.678;23.332;2023-04-26T03:42:55;93520.78;;;8.30;100.00
13209;BME280;6669;42.678;23.332;2023-04-26T03:45:23;93531.28;;;8.28;100.00
13209;BME280;6669;42.678;23.332;2023-04-26T03:47:52;93533.34;;;8.33;100.00
13209;BME280;6669;42.678;23.332;2023-04-26T03:50:20;93535.38;;;8.38;100.00
13209;BME280;6669;42.678;23.332;2023-04-26T03:52:48;93540.13;;;8.34;100.00
13209;BME280;6669;42.678;23.332;2023-04-26T03:55:16;93533.22;;;8.41;100.00
13209;BME280;6669;42.678;23.332;2023-04-26T03:57:45;93542.22;;;8.45;100.00
13209;BME280;6669;42.678;23.332;2023-04-26T04:00:14;93542.13;;;8.54;100.00
13209;BME280;6669;42.678;23.332;2023-04-26T04:02:43;93538.03;;;8.44;100.00
13209;BME280;6669;42.678;23.332;2023-04-26T04:05:12;93546.00;;;8.43;100.00
13209;BME280;6669;42.678;23.332;2023-04-26T04:07:40;93546.06;;;8.49;100.00
13209;BME280;6669;42.678;23.332;2023-04-26T04:10:08;93545.69;;;8.53;100.00
13209;BME280;6669;42.678;23.332;2023-04-26T04:12:37;93552.88;;;8.50;100.00
13209;BME280;6669;42.678;23.332;2023-04-26T04:15:07;93564.84;;;8.52;100.00
13209;BME280;6669;42.678;23.332;2023-04-26T04:17:39;93569.00;;;8.53;100.00
13209;BME280;6669;42.678;23.332;2023-04-26T04:20:09;93557.31;;;8.57;100.00
13209;BME280;6669;42.678;23.332;2023-04-26T04:22:37;93567.09;;;8.61;100.00
13209;BME280;6669;42.678;23.332;2023-04-26T04:25:06;93558.38;;;8.69;100.00
13209;BME280;6669;42.678;23.332;2023-04-26T04:27:35;93565.41;;;8.75;100.00
13209;BME280;6669;42.678;23.332;2023-04-26T04:30:06;93563.25;;;8.79;100.00
13209;BME280;6669;42.678;23.332;2023-04-26T04:32:35;93569.22;;;8.79;100.00
13209;BME280;6669;42.678;23.332;2023-04-26T04:35:05;93566.72;;;8.86;100.00
13209;BME280;6669;42.678;23.332;2023-04-26T04:37:33;93565.38;;;8.97;100.00
13209;BME280;6669;42.678;23.332;2023-04-26T04:40:01;93565.19;;;8.98;100.00
13209;BME280;6669;42.678;23.332;2023-04-26T04:42:30;93571.03;;;9.07;100.00
13209;BME280;6669;42.678;23.332;2023-04-26T04:44:59;93570.44;;;9.05;100.00
13209;BME280;6669;42.678;23.332;2023-04-26T04:47:28;93574.22;;;9.03;100.00
13209;BME280;6669;42.678;23.332;2023-04-26T04:49:56;93569.03;;;9.03;100.00
13209;BME280;6669;42.678;23.332;2023-04-26T04:52:24;93581.19;;;9.02;100.00
13209;BME280;6669;42.678;23.332;2023-04-26T04:54:55;93590.31;;;8.98;100.00
13209;BME280;6669;42.678;23.332;2023-04-26T04:57:23;93570.97;;;8.94;100.00
13209;BME280;6669;42.678;23.332;2023-04-26T04:59:52;93573.41;;;9.02;100.00
13209;BME280;6669;42.678;23.332;2023-04-26T05:02:19;93581.53;;;8.92;100.00
13209;BME280;6669;42.678;23.332;2023-04-26T05:04:49;93582.53;;;8.98;100.00
13209;BME280;6669;42.678;23.332;2023-04-26T05:07:18;93576.00;;;9.02;100.00
13209;BME280;6669;42.678;23.332;2023-04-26T05:09:46;93583.44;;;9.12;100.00
13209;BME280;6669;42.678;23.332;2023-04-26T05:12:14;93582.50;;;9.20;100.00
13209;BME280;6669;42.678;23.332;2023-04-26T05:14:42;93584.56;;;9.31;100.00
13209;BME280;6669;42.678;23.332;2023-04-26T05:17:09;93590.78;;;9.37;100.00
13209;BME280;6669;42.678;23.332;2023-04-26T05:19:37;93573.41;;;9.30;100.00
13209;BME280;6669;42.678;23.332;2023-04-26T05:22:07;93592.69;;;9.21;100.00
13209;BME280;6669;42.678;23.332;2023-04-26T05:24:35;93586.56;;;9.29;100.00
13209;BME280;6669;42.678;23.332;2023-04-26T05:27:03;93590.78;;;9.37;100.00
13209;BME280;6669;42.678;23.332;2023-04-26T05:29:31;93590.09;;;9.49;100.00
13209;BME280;6669;42.678;23.332;2023-04-26T05:31:59;93597.94;;;9.63;100.00
13209;BME280;6669;42.678;23.332;2023-04-26T05:34:27;93597.63;;;9.79;100.00
13209;BME280;6669;42.678;23.332;2023-04-26T05:36:55;93599.03;;;9.82;100.00
13209;BME280;6669;42.678;23.332;2023-04-26T05:39:24;93601.09;;;10.00;100.00
13209;BME280;6669;42.678;23.332;2023-04-26T05:41:52;93596.56;;;10.09;100.00
13209;BME280;6669;42.678;23.332;2023-04-26T05:44:20;93603.81;;;10.27;100.00
13209;BME280;6669;42.678;23.332;2023-04-26T05:46:48;93608.41;;;10.31;100.00
13209;BME280;6669;42.678;23.332;2023-04-26T05:49:16;93615.38;;;10.24;100.00
13209;BME280;6669;42.678;23.332;2023-04-26T05:51:44;93618.28;;;10.36;100.00
13209;BME280;6669;42.678;23.332;2023-04-26T05:54:12;93616.25;;;10.38;100.00
13209;BME280;6669;42.678;23.332;2023-04-26T05:56:41;93617.50;;;10.49;100.00
13209;BME280;6669;42.678;23.332;2023-04-26T05:59:09;93620.31;;;10.54;100.00
13209;BME280;6669;42.678;23.332;2023-04-26T06:01:37;93625.31;;;10.56;100.00
13209;BME280;6669;42.678;23.332;2023-04-26T06:04:05;93619.91;;;10.57;100.00
13209;BME280;6669;42.678;23.332;2023-04-26T06:06:34;93620.53;;;10.59;100.00
13209;BME280;6669;42.678;23.332;2023-04-26T06:09:02;93626.91;;;10.57;100.00
13209;BME280;6669;42.678;23.332;2023-04-26T06:11:31;93620.09;;;10.56;100.00
13209;BME280;6669;42.678;23.332;2023-04-26T06:14:00;93615.53;;;10.71;100.00
13209;BME280;6669;42.678;23.332;2023-04-26T06:16:28;93619.78;;;10.86;100.00
13209;BME280;6669;42.678;23.332;2023-04-26T06:18:56;93610.38;;;10.98;100.00
13209;BME280;6669;42.678;23.332;2023-04-26T06:21:24;93620.78;;;11.11;100.00
13209;BME280;6669;42.678;23.332;2023-04-26T06:23:52;93610.78;;;11.28;100.00
13209;BME280;6669;42.678;23.332;2023-04-26T06:26:21;93618.78;;;11.47;100.00
13209;BME280;6669;42.678;23.332;2023-04-26T06:28:49;93621.78;;;11.51;100.00
13209;BME280;6669;42.678;23.332;2023-04-26T06:31:18;93624.00;;;11.40;100.00
13209;BME280;6669;42.678;23.332;2023-04-26T06:33:48;93619.19;;;11.31;100.00
13209;BME280;6669;42.678;23.332;2023-04-26T06:36:17;93626.41;;;11.22;100.00
13209;BME280;6669;42.678;23.332;2023-04-26T06:38:44;93605.97;;;10.72;100.00
13209;BME280;6669;42.678;23.332;2023-04-26T06:41:13;93626.53;;;10.67;100.00
13209;BME280;6669;42.678;23.332;2023-04-26T06:43:40;93626.53;;;10.67;100.00
13209;BME280;6669;42.678;23.332;2023-04-26T06:46:08;93628.75;;;10.70;100.00
13209;BME280;6669;42.678;23.332;2023-04-26T06:48:38;93636.78;;;10.33;100.00
13209;BME280;6669;42.678;23.332;2023-04-26T06:51:06;93637.47;;;10.00;100.00
13209;BME280;6669;42.678;23.332;2023-04-26T06:53:34;93631.44;;;9.93;100.00
13209;BME280;6669;42.678;23.332;2023-04-26T06:56:02;93646.09;;;10.14;100.00
13209;BME280;6669;42.678;23.332;2023-04-26T06:58:30;93636.00;;;10.26;100.00
13209;BME280;6669;42.678;23.332;2023-04-26T07:00:58;93638.50;;;10.48;100.00
13209;BME280;6669;42.678;23.332;2023-04-26T07:03:26;93655.06;;;10.40;100.00
13209;BME280;6669;42.678;23.332;2023-04-26T07:05:56;93646.31;;;10.19;100.00
13209;BME280;6669;42.678;23.332;2023-04-26T07:08:24;93637.91;;;10.10;100.00
13209;BME280;6669;42.678;23.332;2023-04-26T07:10:52;93646.53;;;10.18;100.00
13209;BME280;6669;42.678;23.332;2023-04-26T07:13:20;93652.81;;;9.95;100.00
13209;BME280;6669;42.678;23.332;2023-04-26T07:15:48;93635.47;;;10.02;100.00
13209;BME280;6669;42.678;23.332;2023-04-26T07:18:17;93648.13;;;10.19;100.00
13209;BME280;6669;42.678;23.332;2023-04-26T07:20:45;93642.16;;;10.18;100.00
13209;BME280;6669;42.678;23.332;2023-04-26T07:23:14;93650.59;;;9.92;100.00
13209;BME280;6669;42.678;23.332;2023-04-26T07:25:42;93645.41;;;9.92;100.00
13209;BME280;6669;42.678;23.332;2023-04-26T07:28:10;93650.94;;;10.24;100.00
13209;BME280;6669;42.678;23.332;2023-04-26T07:30:38;93654.94;;;10.20;100.00
13209;BME280;6669;42.678;23.332;2023-04-26T07:33:06;93650.16;;;10.23;100.00
13209;BME280;6669;42.678;23.332;2023-04-26T07:35:34;93641.88;;;10.48;100.00
13209;BME280;6669;42.678;23.332;2023-04-26T07:38:03;93636.94;;;10.73;100.00
13209;BME280;6669;42.678;23.332;2023-04-26T07:40:32;93667.16;;;10.74;100.00
13209;BME280;6669;42.678;23.332;2023-04-26T07:43:00;93667.94;;;10.68;100.00
13209;BME280;6669;42.678;23.332;2023-04-26T07:45:28;93659.59;;;10.31;100.00
13209;BME280;6669;42.678;23.332;2023-04-26T07:47:56;93653.97;;;10.27;100.00
13209;BME280;6669;42.678;23.332;2023-04-26T07:50:24;93675.16;;;10.31;100.00
13209;BME280;6669;42.678;23.332;2023-04-26T07:52:52;93673.13;;;10.26;100.00
13209;BME280;6669;42.678;23.332;2023-04-26T07:55:20;93684.81;;;10.02;100.00
13209;BME280;6669;42.678;23.332;2023-04-26T07:57:50;93680.38;;;9.96;100.00
13209;BME280;6669;42.678;23.332;2023-04-26T08:00:18;93704.38;;;9.98;100.00
13209;BME280;6669;42.678;23.332;2023-04-26T08:02:48;93671.44;;;10.05;100.00
13209;BME280;6669;42.678;23.332;2023-04-26T08:05:16;93671.66;;;10.10;100.00
13209;BME280;6669;42.678;23.332;2023-04-26T08:07:44;93686.31;;;10.25;100.00
13209;BME280;6669;42.678;23.332;2023-04-26T08:10:12;93677.75;;;10.31;100.00
13209;BME280;6669;42.678;23.332;2023-04-26T08:12:40;93677.88;;;10.16;100.00
13209;BME280;6669;42.678;23.332;2023-04-26T08:15:11;93680.31;;;10.24;100.00
13209;BME280;6669;42.678;23.332;2023-04-26T08:17:39;93682.84;;;10.11;100.00
13209;BME280;6669;42.678;23.332;2023-04-26T08:20:08;93684.69;;;10.17;100.00
13209;BME280;6669;42.678;23.332;2023-04-26T08:22:36;93669.88;;;10.53;100.00
13209;BME280;6669;42.678;23.332;2023-04-26T08:25:04;93672.16;;;10.83;100.00
13209;BME280;6669;42.678;23.332;2023-04-26T08:27:32;93674.97;;;10.94;100.00
13209;BME280;6669;42.678;23.332;2023-04-26T08:30:01;93670.59;;;10.95;100.00
13209;BME280;6669;42.678;23.332;2023-04-26T08:32:31;93670.53;;;10.82;100.00
13209;BME280;6669;42.678;23.332;2023-04-26T08:34:59;93665.59;;;11.00;100.00
13209;BME280;6669;42.678;23.332;2023-04-26T08:37:27;93670.56;;;10.88;100.00
13209;BME280;6669;42.678;23.332;2023-04-26T08:39:55;93667.22;;;11.21;100.00
13209;BME280;6669;42.678;23.332;2023-04-26T08:42:26;93680.22;;;11.28;100.00
13209;BME280;6669;42.678;23.332;2023-04-26T08:44:54;93673.22;;;11.22;100.00
13209;BME280;6669;42.678;23.332;2023-04-26T08:47:27;93684.41;;;11.16;100.00
13209;BME280;6669;42.678;23.332;2023-04-26T08:49:59;93674.59;;;10.91;100.00
13209;BME280;6669;42.678;23.332;2023-04-26T08:52:31;93675.94;;;10.87;100.00
13209;BME280;6669;42.678;23.332;2023-04-26T08:54:59;93678.38;;;11.08;100.00
13209;BME280;6669;42.678;23.332;2023-04-26T08:57:30;93674.63;;;11.24;100.00
13209;BME280;6669;42.678;23.332;2023-04-26T09:00:01;93685.81;;;11.18;100.00
13209;BME280;6669;42.678;23.332;2023-04-26T09:02:31;93675.03;;;11.21;100.00
13209;BME280;6669;42.678;23.332;2023-04-26T09:05:01;93682.03;;;11.48;100.00
13209;BME280;6669;42.678;23.332;2023-04-26T09:07:33;93657.81;;;11.54;100.00
13209;BME280;6669;42.678;23.332;2023-04-26T09:10:04;93685.03;;;11.65;100.00
13209;BME280;6669;42.678;23.332;2023-04-26T09:12:33;93672.00;;;11.58;100.00
13209;BME280;6669;42.678;23.332;2023-04-26T09:15:01;93681.41;;;11.66;100.00
13209;BME280;6669;42.678;23.332;2023-04-26T09:17:31;93703.25;;;11.71;100.00
13209;BME280;6669;42.678;23.332;2023-04-26T09:20:01;93690.22;;;11.51;100.00
13209;BME280;6669;42.678;23.332;2023-04-26T09:22:34;93687.22;;;11.68;100.00
13209;BME280;6669;42.678;23.332;2023-04-26T09:25:04;93688.84;;;11.62;100.00
13209;BME280;6669;42.678;23.332;2023-04-26T09:27:34;93676.81;;;11.61;100.00
13209;BME280;6669;42.678;23.332;2023-04-26T09:30:06;93686.44;;;11.67;100.00
13209;BME280;6669;42.678;23.332;2023-04-26T09:32:49;93694.25;;;11.47;100.00
13209;BME280;6669;42.678;23.332;2023-04-26T09:35:24;93678.00;;;11.52;100.00
13209;BME280;6669;42.678;23.332;2023-04-26T09:37:53;93682.03;;;11.68;100.00
13209;BME280;6669;42.678;23.332;2023-04-26T09:40:28;93676.78;;;11.74;100.00
13209;BME280;6669;42.678;23.332;2023-04-26T09:42:58;93673.19;;;11.75;100.00
13209;BME280;6669;42.678;23.332;2023-04-26T09:45:27;93682.19;;;11.93;100.00
13209;BME280;6669;42.678;23.332;2023-04-26T09:48:11;93663.16;;;12.06;100.00
13209;BME280;6669;42.678;23.332;2023-04-26T09:50:42;93669.53;;;12.23;100.00
13209;BME280;6669;42.678;23.332;2023-04-26T09:53:11;93672.88;;;12.37;100.00
13209;BME280;6669;42.678;23.332;2023-04-26T09:55:52;93648.72;;;12.10;100.00
13209;BME280;6669;42.678;23.332;2023-04-26T09:58:20;93675.06;;;12.40;100.00
13209;BME280;6669;42.678;23.332;2023-04-26T10:00:53;93674.31;;;12.33;100.00
13209;BME280;6669;42.678;23.332;2023-04-26T10:03:23;93666.44;;;12.47;100.00
13209;BME280;6669;42.678;23.332;2023-04-26T10:05:55;93662.81;;;12.86;100.00
13209;BME280;6669;42.678;23.332;2023-04-26T10:08:23;93667.38;;;12.98;100.00
13209;BME280;6669;42.678;23.332;2023-04-26T10:10:52;93659.25;;;13.13;100.00
13209;BME280;6669;42.678;23.332;2023-04-26T10:13:21;93668.25;;;13.17;100.00
13209;BME280;6669;42.678;23.332;2023-04-26T10:15:49;93661.84;;;12.81;99.48
13209;BME280;6669;42.678;23.332;2023-04-26T10:18:17;93665.16;;;13.01;100.00
13209;BME280;6669;42.678;23.332;2023-04-26T10:20:50;93655.16;;;13.23;98.28
13209;BME280;6669;42.678;23.332;2023-04-26T10:23:21;93664.56;;;13.31;97.33
13209;BME280;6669;42.678;23.332;2023-04-26T10:25:51;93655.31;;;13.29;95.05
13209;BME280;6669;42.678;23.332;2023-04-26T10:28:53;93649.06;;;13.36;91.98
13209;BME280;6669;42.678;23.332;2023-04-26T10:34:30;93678.63;;;12.98;91.23
13209;BME280;6669;42.678;23.332;2023-04-26T10:37:05;93657.38;;;12.88;94.57
13209;BME280;6669;42.678;23.332;2023-04-26T10:39:35;93664.84;;;13.16;94.60
13209;BME280;6669;42.678;23.332;2023-04-26T10:42:19;93652.53;;;12.98;90.48
13209;BME280;6669;42.678;23.332;2023-04-26T10:44:53;93660.00;;;13.20;90.71
13209;BME280;6669;42.678;23.332;2023-04-26T10:47:33;93666.25;;;13.19;89.25
13209;BME280;6669;42.678;23.332;2023-04-26T10:50:05;93652.78;;;12.90;88.51
13209;BME280;6669;42.678;23.332;2023-04-26T10:52:35;93644.16;;;12.89;90.33
13209;BME280;6669;42.678;23.332;2023-04-26T10:55:05;93656.94;;;12.98;86.38
13209;BME280;6669;42.678;23.332;2023-04-26T10:57:48;93652.88;;;13.08;85.83
13209;BME280;6669;42.678;23.332;2023-04-26T11:03:09;93652.44;;;12.80;85.20
13209;BME280;6669;42.678;23.332;2023-04-26T11:05:51;93662.25;;;13.09;84.04
13209;BME280;6669;42.678;23.332;2023-04-26T11:08:23;93647.03;;;13.06;83.59
13209;BME280;6669;42.678;23.332;2023-04-26T11:11:06;93646.75;;;12.89;85.40
13209;BME280;6669;42.678;23.332;2023-04-26T11:13:39;93647.44;;;13.35;85.32
13209;BME280;6669;42.678;23.332;2023-04-26T11:16:08;93646.66;;;13.60;80.72
13209;BME280;6669;42.678;23.332;2023-04-26T11:18:38;93648.16;;;13.75;75.80
13209;BME280;6669;42.678;23.332;2023-04-26T11:21:08;93644.72;;;13.55;75.84
13209;BME280;6669;42.678;23.332;2023-04-26T11:23:38;93638.22;;;13.39;77.91
13209;BME280;6669;42.678;23.332;2023-04-26T11:26:08;93640.72;;;13.53;77.57
13209;BME280;6669;42.678;23.332;2023-04-26T11:28:37;93644.44;;;13.64;80.51
13209;BME280;6669;42.678;23.332;2023-04-26T11:31:06;93659.63;;;13.92;77.91
13209;BME280;6669;42.678;23.332;2023-04-26T11:33:35;93649.41;;;13.47;74.91
13209;BME280;6669;42.678;23.332;2023-04-26T11:36:03;93673.28;;;13.50;75.92
13209;BME280;6669;42.678;23.332;2023-04-26T11:38:32;93658.97;;;13.28;76.29
13209;BME280;6669;42.678;23.332;2023-04-26T11:41:00;93645.25;;;13.32;77.51
13209;BME280;6669;42.678;23.332;2023-04-26T11:43:33;93659.75;;;13.28;75.12
13209;BME280;6669;42.678;23.332;2023-04-26T11:46:02;93665.19;;;13.27;74.49
13209;BME280;6669;42.678;23.332;2023-04-26T11:48:32;93654.47;;;13.35;75.35
13209;BME280;6669;42.678;23.332;2023-04-26T11:51:02;93665.06;;;13.15;75.45
13209;BME280;6669;42.678;23.332;2023-04-26T11:53:37;93655.88;;;13.63;75.09
13209;BME280;6669;42.678;23.332;2023-04-26T11:56:16;93638.75;;;14.11;73.08
13209;BME280;6669;42.678;23.332;2023-04-26T11:58:46;93624.31;;;14.76;70.35
13209;BME280;6669;42.678;23.332;2023-04-26T12:01:21;93631.66;;;15.63;68.24
13209;BME280;6669;42.678;23.332;2023-04-26T12:03:50;93652.91;;;15.43;64.46
13209;BME280;6669;42.678;23.332;2023-04-26T12:06:24;93650.88;;;14.91;65.23
13209;BME280;6669;42.678;23.332;2023-04-26T12:08:52;93629.16;;;14.91;67.77
13209;BME280;6669;42.678;23.332;2023-04-26T12:11:20;93633.31;;;14.80;68.11
13209;BME280;6669;42.678;23.332;2023-04-26T12:13:50;93639.03;;;14.88;69.48
13209;BME280;6669;42.678;23.332;2023-04-26T12:16:17;93625.06;;;14.95;68.92
13209;BME280;6669;42.678;23.332;2023-04-26T12:18:52;93640.38;;;14.61;68.88
13209;BME280;6669;42.678;23.332;2023-04-26T12:21:20;93634.28;;;14.97;69.33
13209;BME280;6669;42.678;23.332;2023-04-26T12:23:50;93635.59;;;15.18;69.23
13209;BME280;6669;42.678;23.332;2023-04-26T12:26:18;93635.78;;;15.17;66.23
13209;BME280;6669;42.678;23.332;2023-04-26T12:28:46;93631.50;;;14.80;66.83
13209;BME280;6669;42.678;23.332;2023-04-26T12:31:16;93617.34;;;14.69;67.41
13209;BME280;6669;42.678;23.332;2023-04-26T12:33:44;93655.06;;;14.43;67.55
13209;BME280;6669;42.678;23.332;2023-04-26T12:36:12;93614.19;;;14.30;68.60
13209;BME280;6669;42.678;23.332;2023-04-26T12:38:40;93616.44;;;14.45;68.78
13209;BME280;6669;42.678;23.332;2023-04-26T12:41:08;93657.97;;;14.35;67.89
13209;BME280;6669;42.678;23.332;2023-04-26T12:43:36;93626.25;;;14.31;68.28
13209;BME280;6669;42.678;23.332;2023-04-26T12:46:05;93634.13;;;13.69;68.49
13209;BME280;6669;42.678;23.332;2023-04-26T12:48:34;93669.75;;;13.38;72.22
13209;BME280;6669;42.678;23.332;2023-04-26T12:51:02;93658.78;;;13.22;73.97
13209;BME280;6669;42.678;23.332;2023-04-26T12:53:30;93627.47;;;13.48;77.03
13209;BME280;6669;42.678;23.332;2023-04-26T12:55:59;93644.94;;;13.72;74.49
13209;BME280;6669;42.678;23.332;2023-04-26T12:58:27;93650.81;;;13.43;71.59
13209;BME280;6669;42.678;23.332;2023-04-26T13:00:55;93631.81;;;13.61;71.51
13209;BME280;6669;42.678;23.332;2023-04-26T13:03:23;93643.25;;;13.34;70.36
13209;BME280;6669;42.678;23.332;2023-04-26T13:05:53;93625.75;;;13.35;71.95
13209;BME280;6669;42.678;23.332;2023-04-26T13:08:21;93623.16;;;13.60;72.94
13209;BME280;6669;42.678;23.332;2023-04-26T13:10:50;93640.50;;;13.73;76.39
13209;BME280;6669;42.678;23.332;2023-04-26T13:13:18;93648.44;;;13.41;78.66
13209;BME280;6669;42.678;23.332;2023-04-26T13:15:54;93666.84;;;12.82;80.01